Airfield :
LOGIN :

Register | Disclaimer

   EN    FR    IT 

 










Legend :    VFR   Marginal VFR   IFR   Intensive IFR   Very Intensive IFR
Visi :
Ceiling :
>= 8 km
>= 3000ft
5 to 8 km
1000 to 3000 ft
1500m to 5 km
500 to 1000 ft
800 to 1500m
200 to 500 ft
< 800m
< 200 ft
Symbols :   Thunderstorms  Fog  Heavy snow  Heavy precipitations  Wind > 20 kt
SIGMETs :     Misc.  Thunderstorms  Icing  Turbulence  Mountain Waves  Volcanic Ashes







- Airport Elevation : 616 ft
- IATA code : PUF
- Download approach charts


LFBP - Pau

CURRENT METAR :
  • 190900Z AUTO 08004KT 360V130 9999 SCT020 SCT025 OVC056 19/15 Q1021 NOSIG

EXPIRED METARs :
  • 190830Z AUTO VRB03KT 9999 FEW019 OVC054 18/14 Q1021 NOSIG
  • 190800Z AUTO 11003KT 070V140 9999 OVC054 18/15 Q1020 NOSIG
  • 190730Z AUTO 11004KT 070V150 9999 OVC054 17/15 Q1020 NOSIG
  • 190700Z AUTO VRB03KT 9999 OVC056 17/15 Q1020 TEMPO BKN010
  • 190630Z AUTO VRB03KT 9999 OVC054 17/15 Q1020 TEMPO BKN010

TAF TAF LFBP
Valid from the 19 at 06:00 until the 20 at 06:00 UTC


190500Z 1906/2006 VRB03KT 9999 SCT020 BKN030
PROB30
TEMPO 1906/1908 BKN010
BECMG 1908/1910 BKN045
PROB30
TEMPO 1922/1924 4000 SHRA BKN030TCU
BECMG 2000/2002 4000 -RA OVC010
PROB30
TEMPO 2000/2006 06006KT 2000 RA OVC005 OVC030
No reported NOTAMs for that airfield.



MET'MAP, your aeronautical weather chart ! - Copyright ORBIFLY December 2007 - Disclaimer

ORBIFLY MET'MAP TEAM :

Programming & Development : Alexandra Zaïnal
Concept & Development : Baudouin d'Aumeries
Co-Development & Prog : Marc-Olivier Méhu
Technical & hardware support : Manuel Goepfert

Contact : metmap@orbifly.com




SOURCES & CREDITS :

   NOAA